Time;durP1;ratioP1;P1;durP2;ratioP2;P2;SDS_P1;SDS_P2;PMS_P1;PMS_P2;Temp;Humidity;BMP_temperature;BMP_pressure;BME280_temperature;BME280_humidity;BME280_pressure;Samples;Min_cycle;Max_cycle;Signal;HPM_P1;HPM_P2
2023/01/31 05:03:41;;;;;;;2.30;2.20;;;3.20;99.90;;;;;;6209321;22;20304;31
2023/01/31 05:06:07;;;;;;;2.95;2.20;;;3.10;99.90;;;;;;4978805;28;20212;-69
2023/01/31 05:08:33;;;;;;;2.83;2.63;;;3.00;99.90;;;;;;4977727;28;20204;-69
2023/01/31 05:11:01;;;;;;;1.77;1.67;;;3.00;99.90;;;;;;4989906;28;20185;-69
2023/01/31 05:13:28;;;;;;;3.30;2.45;;;2.90;99.90;;;;;;4958260;28;20188;-69
2023/01/31 05:15:56;;;;;;;3.20;1.80;;;2.80;99.90;;;;;;4939194;29;20209;-69
2023/01/31 05:18:23;;;;;;;1.80;1.70;;;2.70;99.90;;;;;;4938086;29;20182;-69
2023/01/31 05:20:49;;;;;;;2.75;2.55;;;2.70;99.90;;;;;;4939039;29;20197;-69
2023/01/31 05:23:17;;;;;;;2.20;2.00;;;2.60;99.90;;;;;;4942071;29;20185;-69
2023/01/31 05:25:43;;;;;;;1.70;1.60;;;2.60;99.90;;;;;;4958101;28;20459;-68
2023/01/31 05:28:09;;;;;;;7.87;2.50;;;2.60;99.90;;;;;;4958244;28;20213;-69
2023/01/31 05:30:35;;;;;;;2.60;2.33;;;2.60;99.90;;;;;;4958128;28;20416;-69
2023/01/31 05:33:00;;;;;;;2.30;2.07;;;2.60;99.90;;;;;;4957417;29;20654;-70
2023/01/31 05:35:26;;;;;;;1.93;1.83;;;2.70;99.90;;;;;;4956904;28;20427;-68
2023/01/31 05:37:53;;;;;;;1.83;1.73;;;2.70;99.90;;;;;;4957994;28;20175;-69
2023/01/31 05:40:19;;;;;;;3.70;3.22;;;2.80;99.90;;;;;;4957900;28;20205;-69
2023/01/31 05:42:44;;;;;;;3.30;3.00;;;2.80;99.90;;;;;;4957626;29;20216;-69
2023/01/31 05:45:11;;;;;;;2.73;2.53;;;2.90;99.90;;;;;;4957759;28;20189;-69
2023/01/31 05:47:37;;;;;;;5.05;3.63;;;2.90;99.90;;;;;;4957621;28;20212;-69
2023/01/31 05:50:03;;;;;;;3.70;2.70;;;2.90;99.90;;;;;;4957636;29;20173;-68
2023/01/31 05:52:29;;;;;;;3.20;2.45;;;2.90;99.90;;;;;;4957803;28;20906;-69
2023/01/31 05:54:55;;;;;;;2.90;2.57;;;2.90;99.90;;;;;;4957271;28;20251;-68
2023/01/31 05:57:21;;;;;;;3.53;2.17;;;3.00;99.90;;;;;;4957368;28;20195;-68
2023/01/31 05:59:46;;;;;;;3.97;2.90;;;3.00;99.90;;;;;;4954070;29;20261;-68
2023/01/31 06:02:12;;;;;;;4.53;2.67;;;3.00;99.90;;;;;;4937982;29;20260;-68
2023/01/31 06:04:38;;;;;;;2.77;2.50;;;3.00;99.90;;;;;;4937906;29;20185;-71
2023/01/31 06:07:03;;;;;;;2.53;2.43;;;2.90;99.90;;;;;;4938293;29;20190;-70
2023/01/31 06:09:29;;;;;;;2.60;2.40;;;2.90;99.90;;;;;;4938269;29;20209;-71
2023/01/31 06:11:55;;;;;;;5.33;2.90;;;2.90;99.90;;;;;;4938228;29;20194;-71
2023/01/31 06:14:20;;;;;;;5.67;2.80;;;2.80;99.90;;;;;;4937820;29;20197;-70
2023/01/31 06:16:46;;;;;;;2.47;2.27;;;2.70;99.90;;;;;;4938199;29;20173;-63
2023/01/31 06:19:12;;;;;;;9.43;1.97;;;2.60;99.90;;;;;;4937955;29;20224;-62
2023/01/31 06:21:37;;;;;;;3.70;2.37;;;2.50;99.90;;;;;;4949362;29;20204;-62
2023/01/31 06:24:03;;;;;;;3.30;2.73;;;2.50;99.90;;;;;;4955304;28;20196;-62
2023/01/31 06:26:29;;;;;;;3.92;3.58;;;2.40;99.90;;;;;;4956370;28;20512;-64
2023/01/31 06:28:55;;;;;;;2.00;1.90;;;2.40;99.90;;;;;;4957024;29;20320;-61
2023/01/31 06:31:20;;;;;;;2.90;2.70;;;2.40;99.90;;;;;;4957048;29;20188;-66
2023/01/31 06:33:46;;;;;;;3.03;1.97;;;2.40;99.90;;;;;;4945802;29;20181;-63
2023/01/31 06:36:12;;;;;;;3.70;2.60;;;2.40;99.90;;;;;;4938090;29;20173;-62
2023/01/31 06:38:37;;;;;;;3.80;2.60;;;2.40;99.90;;;;;;4954009;29;20515;-63
2023/01/31 06:41:03;;;;;;;1.83;1.70;;;2.30;99.90;;;;;;4948688;28;20201;-63
2023/01/31 06:43:29;;;;;;;2.50;2.17;;;2.20;99.90;;;;;;4940502;28;20181;-62
2023/01/31 06:45:54;;;;;;;3.43;3.00;;;2.20;99.90;;;;;;4956373;28;20183;-62
2023/01/31 06:48:20;;;;;;;2.73;2.27;;;2.20;99.90;;;;;;4955957;28;20181;-63
2023/01/31 06:50:46;;;;;;;3.10;2.20;;;2.30;99.90;;;;;;4956490;29;20177;-63
2023/01/31 06:53:11;;;;;;;2.90;2.57;;;2.30;99.90;;;;;;4955357;29;20635;-62
2023/01/31 06:55:37;;;;;;;2.63;2.43;;;2.30;99.90;;;;;;4950580;28;20205;-62
2023/01/31 06:58:03;;;;;;;5.90;2.80;;;2.30;99.90;;;;;;4937412;29;20185;-63
2023/01/31 07:00:29;;;;;;;5.50;3.43;;;2.30;99.90;;;;;;4936866;29;20296;-62
2023/01/31 07:02:55;;;;;;;3.67;2.77;;;2.30;99.90;;;;;;4937171;29;20189;-63
2023/01/31 07:05:21;;;;;;;4.00;2.75;;;2.40;99.90;;;;;;4937263;29;20460;-62
2023/01/31 07:07:48;;;;;;;2.88;2.67;;;2.40;99.90;;;;;;4939203;29;20284;-64
2023/01/31 07:10:16;;;;;;;3.10;2.65;;;2.40;99.90;;;;;;4956182;28;20288;-62
2023/01/31 07:12:42;;;;;;;10.38;3.83;;;2.30;99.90;;;;;;4955940;28;20183;-63
2023/01/31 07:15:09;;;;;;;5.33;2.07;;;2.40;99.90;;;;;;4956009;28;20205;-64
2023/01/31 07:17:35;;;;;;;7.97;3.03;;;2.40;99.90;;;;;;4956101;28;20191;-63
2023/01/31 07:20:01;;;;;;;1.83;1.73;;;2.40;99.90;;;;;;4956232;28;20291;-63
2023/01/31 07:22:27;;;;;;;4.83;2.63;;;2.40;99.90;;;;;;4955991;28;20575;-63
2023/01/31 07:24:52;;;;;;;3.28;2.95;;;2.40;99.90;;;;;;4955816;28;20200;-63
2023/01/31 07:27:18;;;;;;;2.97;2.77;;;2.40;99.90;;;;;;4956124;28;20244;-61
2023/01/31 07:29:44;;;;;;;3.00;2.20;;;2.50;99.90;;;;;;4955751;28;20237;-63
2023/01/31 07:32:10;;;;;;;7.17;2.97;;;2.60;99.90;;;;;;4956174;28;20596;-63
2023/01/31 07:34:36;;;;;;;4.18;3.70;;;2.70;99.90;;;;;;4955711;28;20219;-61
2023/01/31 07:37:01;;;;;;;4.20;2.80;;;2.70;99.90;;;;;;4956040;28;20615;-63
2023/01/31 07:39:28;;;;;;;4.43;3.70;;;2.80;99.90;;;;;;4956221;28;20251;-63
2023/01/31 07:41:54;;;;;;;5.20;3.80;;;2.80;99.90;;;;;;4954482;29;20355;-63
2023/01/31 07:44:19;;;;;;;3.63;3.17;;;2.80;99.90;;;;;;4953991;28;20279;-63
2023/01/31 07:46:45;;;;;;;2.60;2.40;;;2.80;99.90;;;;;;4955651;28;20503;-64
2023/01/31 07:49:11;;;;;;;2.43;2.23;;;2.90;99.90;;;;;;4955725;28;20493;-63
2023/01/31 07:51:40;;;;;;;3.53;2.97;;;3.00;99.90;;;;;;4955596;28;20216;-63
2023/01/31 07:54:06;;;;;;;4.50;4.10;;;3.20;99.90;;;;;;4944171;28;20224;-63
2023/01/31 07:56:32;;;;;;;5.75;2.20;;;3.50;99.90;;;;;;4941623;29;20251;-64
2023/01/31 07:58:58;;;;;;;3.80;3.50;;;3.80;99.90;;;;;;4955653;28;20221;-63
2023/01/31 08:04:13;;;;;;;3.05;2.75;;;4.80;99.90;;;;;;4955593;28;20619;-63
2023/01/31 08:06:40;;;;;;;5.13;3.80;;;5.10;99.90;;;;;;4955320;28;20723;-63
2023/01/31 08:09:06;;;;;;;4.28;3.03;;;5.20;99.90;;;;;;4955327;28;20530;-72
2023/01/31 08:11:32;;;;;;;4.00;2.90;;;5.20;99.90;;;;;;4954156;29;20180;-70
2023/01/31 08:13:58;;;;;;;6.37;2.90;;;5.00;99.90;;;;;;4954833;28;20190;-71
2023/01/31 08:16:24;;;;;;;5.23;3.60;;;4.90;99.90;;;;;;4955484;28;20412;-72
2023/01/31 08:18:51;;;;;;;4.33;2.50;;;4.80;99.90;;;;;;4955148;28;20240;-72
2023/01/31 08:21:17;;;;;;;5.30;3.40;;;5.00;99.90;;;;;;4955337;28;20455;-72
2023/01/31 08:23:43;;;;;;;3.55;3.22;;;5.50;99.90;;;;;;4954706;28;20176;-73
2023/01/31 08:26:14;;;;;;;3.20;2.67;;;5.80;99.90;;;;;;4955290;28;20239;-72
2023/01/31 08:28:41;;;;;;;3.40;3.10;;;6.20;99.90;;;;;;4955215;28;20466;-71
2023/01/31 08:31:10;;;;;;;2.47;1.88;;;6.70;99.90;;;;;;4953759;29;20208;-72
2023/01/31 08:33:37;;;;;;;2.90;2.60;;;7.40;99.90;;;;;;4954725;28;20187;-71
2023/01/31 08:36:18;;;;;;;3.13;2.03;;;8.30;99.90;;;;;;4954414;28;20179;-71
2023/01/31 08:38:44;;;;;;;6.03;2.77;;;9.10;99.90;;;;;;4956986;28;20998;-70
2023/01/31 08:41:11;;;;;;;2.60;1.83;;;9.20;99.90;;;;;;4955475;28;20534;-70
2023/01/31 08:43:36;;;;;;;2.53;2.00;;;9.00;99.90;;;;;;4970745;28;20184;-72
2023/01/31 08:46:03;;;;;;;3.87;1.90;;;8.80;99.90;;;;;;4955616;28;20182;-72
2023/01/31 08:48:35;;;;;;;2.47;2.27;;;8.70;99.90;;;;;;4955555;28;20182;-71
2023/01/31 08:51:05;;;;;;;5.50;2.77;;;8.60;99.90;;;;;;4955596;28;20407;-72
2023/01/31 08:53:32;;;;;;;2.40;2.20;;;8.50;99.90;;;;;;4954833;28;20423;-72
2023/01/31 08:56:02;;;;;;;7.07;2.35;;;8.30;99.90;;;;;;4954562;29;20178;-72
2023/01/31 08:58:30;;;;;;;2.38;2.00;;;8.00;99.90;;;;;;4956455;28;20201;-70
2023/01/31 09:01:01;;;;;;;4.43;1.70;;;7.80;99.90;;;;;;4956517;28;20287;-72
2023/01/31 09:03:27;;;;;;;4.65;2.70;;;7.60;99.90;;;;;;4955197;28;20169;-72
2023/01/31 09:05:53;;;;;;;6.53;3.33;;;7.50;99.90;;;;;;4954603;28;20224;-72
2023/01/31 09:08:18;;;;;;;2.90;1.73;;;7.40;99.90;;;;;;4953634;29;20427;-73
2023/01/31 09:10:51;;;;;;;4.97;2.10;;;7.30;99.90;;;;;;4954794;28;20651;-72
2023/01/31 09:13:17;;;;;;;3.10;1.90;;;7.30;99.90;;;;;;4953569;29;20204;-71
2023/01/31 09:15:42;;;;;;;2.63;1.50;;;7.20;99.90;;;;;;4954884;28;20197;-72
2023/01/31 09:18:08;;;;;;;2.40;2.20;;;7.20;99.90;;;;;;4954581;28;20181;-73
2023/01/31 09:20:33;;;;;;;6.53;2.67;;;7.20;99.90;;;;;;4953143;29;20252;-69
2023/01/31 09:22:59;;;;;;;3.13;2.80;;;7.50;99.90;;;;;;4954618;28;20184;-72
2023/01/31 09:25:25;;;;;;;1.70;1.60;;;7.80;99.90;;;;;;4954823;28;20576;-72
2023/01/31 09:27:52;;;;;;;5.03;2.90;;;8.10;99.90;;;;;;4954828;28;20168;-71
2023/01/31 09:30:18;;;;;;;3.63;2.03;;;8.10;99.90;;;;;;4954914;28;20176;-71
2023/01/31 09:32:45;;;;;;;3.20;2.90;;;8.20;99.90;;;;;;4956157;29;20184;-71
2023/01/31 09:35:11;;;;;;;1.83;1.67;;;8.20;99.90;;;;;;4957971;28;20193;-71
2023/01/31 09:37:37;;;;;;;1.75;1.65;;;8.30;99.90;;;;;;4958212;28;20179;-70
2023/01/31 09:40:04;;;;;;;4.40;2.60;;;8.30;99.90;;;;;;4958295;28;20204;-70
2023/01/31 09:42:34;;;;;;;3.42;2.17;;;8.20;99.90;;;;;;4958733;28;20173;-70
2023/01/31 09:45:06;;;;;;;1.65;1.55;;;8.20;99.90;;;;;;4957524;28;20199;-70
2023/01/31 09:47:49;;;;;;;4.65;2.17;;;8.10;99.90;;;;;;4957749;28;20183;-71
2023/01/31 09:50:43;;;;;;;4.03;2.38;;;8.10;99.90;;;;;;4957725;28;20190;-71
2023/01/31 09:53:12;;;;;;;3.25;1.70;;;8.20;99.90;;;;;;4950631;28;20189;-70
2023/01/31 09:55:45;;;;;;;10.52;5.68;;;8.60;99.90;;;;;;4958356;28;20217;-71
2023/01/31 09:58:31;;;;;;;3.42;3.08;;;8.80;99.90;;;;;;4961972;28;20188;-69
2023/01/31 10:01:02;;;;;;;3.72;2.10;;;8.80;99.90;;;;;;4965718;28;20213;-70
2023/01/31 10:03:38;;;;;;;3.72;2.00;;;8.50;99.90;;;;;;4966682;28;20171;-71
2023/01/31 10:06:17;;;;;;;2.22;2.03;;;8.40;99.90;;;;;;4966705;28;20273;-70
2023/01/31 10:08:49;;;;;;;11.20;2.22;;;8.40;99.90;;;;;;4962712;29;20639;-71
2023/01/31 10:11:27;;;;;;;4.72;1.70;;;8.20;99.90;;;;;;4958848;28;20172;-70
2023/01/31 10:14:18;;;;;;;2.05;1.83;;;8.20;99.90;;;;;;4957575;28;20288;-70
2023/01/31 10:17:04;;;;;;;3.00;2.20;;;8.20;99.90;;;;;;4957696;28;20248;-70
2023/01/31 10:19:56;;;;;;;2.28;2.03;;;8.00;99.90;;;;;;4959117;28;20516;-71
2023/01/31 10:22:37;;;;;;;5.43;2.63;;;7.90;99.90;;;;;;4935453;29;20216;-70
2023/01/31 10:25:42;;;;;;;5.10;1.88;;;7.70;99.90;;;;;;4939920;29;20548;-71
2023/01/31 10:28:23;;;;;;;1.98;1.85;;;7.70;99.90;;;;;;4939209;29;20185;-72
2023/01/31 10:31:23;;;;;;;2.45;2.20;;;7.60;99.90;;;;;;4947015;29;20185;-71
2023/01/31 10:34:13;;;;;;;4.72;1.90;;;7.60;99.90;;;;;;4950011;28;20212;-70
2023/01/31 10:37:18;;;;;;;1.60;1.45;;;7.50;99.90;;;;;;4957155;28;20180;-71
2023/01/31 10:39:49;;;;;;;3.42;2.33;;;7.50;99.90;;;;;;4937110;28;20260;-71
2023/01/31 10:42:36;;;;;;;7.63;2.15;;;7.40;99.90;;;;;;4956152;28;20189;-71
2023/01/31 10:45:10;;;;;;;3.10;1.33;;;7.50;99.90;;;;;;4956654;28;20733;-70
2023/01/31 10:47:44;;;;;;;1.95;1.85;;;7.70;99.90;;;;;;4956944;28;20164;-71
2023/01/31 10:50:18;;;;;;;2.28;1.52;;;7.80;99.90;;;;;;4957165;28;20536;-71
2023/01/31 10:53:28;;;;;;;5.70;1.60;;;7.80;99.90;;;;;;4956386;28;20176;-70
2023/01/31 10:56:28;;;;;;;7.68;2.45;;;7.80;99.90;;;;;;4956289;29;20243;-72
2023/01/31 10:58:55;;;;;;;1.85;1.75;;;7.80;99.90;;;;;;4954519;28;20315;-69
2023/01/31 11:01:21;;;;;;;3.15;1.60;;;7.70;99.90;;;;;;4955335;29;20235;-70
2023/01/31 11:03:53;;;;;;;3.47;1.90;;;7.70;99.90;;;;;;4955971;28;20256;-69
2023/01/31 11:06:20;;;;;;;2.72;1.73;;;7.80;99.90;;;;;;4956027;28;20191;-69
2023/01/31 11:08:56;;;;;;;4.68;2.17;;;7.80;99.90;;;;;;4954887;29;20173;-68
2023/01/31 11:11:24;;;;;;;1.60;1.50;;;7.70;99.90;;;;;;4956596;28;20355;-69
2023/01/31 11:14:01;;;;;;;5.22;2.75;;;7.70;99.90;;;;;;4956099;28;20203;-69
2023/01/31 11:16:34;;;;;;;2.25;1.85;;;7.60;99.90;;;;;;4956535;28;20734;-69
2023/01/31 11:19:21;;;;;;;2.33;2.03;;;7.70;99.90;;;;;;4955679;28;20188;-71
2023/01/31 11:21:50;;;;;;;1.90;1.80;;;7.70;99.90;;;;;;4956137;28;20308;-72
2023/01/31 11:24:20;;;;;;;2.13;1.90;;;7.70;99.90;;;;;;4955393;28;20679;-71
2023/01/31 11:27:06;;;;;;;3.10;2.00;;;7.70;99.90;;;;;;4956199;28;20176;-70
2023/01/31 11:29:39;;;;;;;2.47;2.17;;;7.70;99.90;;;;;;4956102;28;20180;-66
2023/01/31 11:32:16;;;;;;;6.38;2.40;;;7.70;99.90;;;;;;4955735;28;20180;-66
2023/01/31 11:34:57;;;;;;;4.70;1.20;;;7.80;99.90;;;;;;4955482;28;20200;-65
2023/01/31 11:37:23;;;;;;;3.30;1.90;;;7.90;99.90;;;;;;4954743;29;20184;-68
2023/01/31 11:39:58;;;;;;;11.97;1.93;;;8.00;99.90;;;;;;4955379;28;20267;-69
2023/01/31 11:42:24;;;;;;;5.07;2.00;;;8.00;99.90;;;;;;4955593;28;20173;-67
2023/01/31 11:44:59;;;;;;;4.60;1.90;;;8.00;99.90;;;;;;4955411;28;20188;-69
2023/01/31 11:47:49;;;;;;;3.22;1.05;;;8.10;99.90;;;;;;4955710;28;20172;-68
2023/01/31 11:50:25;;;;;;;2.67;2.58;;;8.20;99.90;;;;;;4955372;28;20227;-68
2023/01/31 11:53:02;;;;;;;4.47;2.13;;;8.20;99.90;;;;;;4955952;28;20686;-68
2023/01/31 11:55:37;;;;;;;1.95;1.70;;;8.20;99.90;;;;;;4955318;28;20682;-70
2023/01/31 11:58:14;;;;;;;4.40;1.73;;;8.20;99.90;;;;;;4955707;28;20180;-70
2023/01/31 12:00:57;;;;;;;4.40;1.40;;;8.20;99.90;;;;;;4954251;29;20197;-67
2023/01/31 12:03:23;;;;;;;3.15;1.50;;;8.20;99.90;;;;;;4955104;28;20256;-68
2023/01/31 12:05:51;;;;;;;3.42;1.42;;;8.10;99.90;;;;;;4955219;28;20203;-67
2023/01/31 12:08:40;;;;;;;1.33;1.23;;;8.00;99.90;;;;;;4955348;28;20183;-68
2023/01/31 12:11:24;;;;;;;2.92;2.38;;;8.00;99.90;;;;;;4955507;28;20187;-68
2023/01/31 12:13:53;;;;;;;2.05;1.25;;;8.00;99.90;;;;;;4954907;28;20690;-67
2023/01/31 12:16:25;;;;;;;3.28;2.00;;;7.90;99.90;;;;;;4954860;28;20559;-66
2023/01/31 12:19:06;;;;;;;1.05;1.05;;;7.90;99.90;;;;;;4955494;28;20173;-68
2023/01/31 12:21:32;;;;;;;3.55;1.60;;;8.00;99.90;;;;;;4955483;29;20275;-69
2023/01/31 12:24:15;;;;;;;1.73;1.63;;;8.10;99.90;;;;;;4944604;29;20288;-69
2023/01/31 12:27:02;;;;;;;2.35;1.65;;;8.20;99.90;;;;;;4935865;29;20651;-69
2023/01/31 12:29:55;;;;;;;5.95;2.40;;;8.20;99.90;;;;;;4936105;29;20177;-69
2023/01/31 12:32:57;;;;;;;3.60;1.88;;;8.30;99.90;;;;;;4936157;29;20187;-68
2023/01/31 12:35:50;;;;;;;3.25;1.40;;;8.40;99.90;;;;;;4936114;29;20199;-67
2023/01/31 12:38:43;;;;;;;3.75;1.35;;;8.40;99.90;;;;;;4949751;29;20247;-68
2023/01/31 12:41:23;;;;;;;1.70;1.05;;;8.40;99.90;;;;;;4954988;28;20208;-67
2023/01/31 12:43:57;;;;;;;1.50;1.40;;;8.50;99.90;;;;;;4954220;28;20184;-68
2023/01/31 12:46:38;;;;;;;2.03;1.92;;;8.70;99.90;;;;;;4955244;28;20250;-69
2023/01/31 12:49:28;;;;;;;1.05;1.00;;;8.70;99.90;;;;;;4955293;28;20169;-70
2023/01/31 12:52:02;;;;;;;2.88;1.58;;;8.70;99.90;;;;;;4955119;28;20595;-71
2023/01/31 12:54:28;;;;;;;1.42;1.10;;;8.70;99.90;;;;;;4954307;28;20536;-69
2023/01/31 12:57:20;;;;;;;1.87;1.73;;;8.80;99.90;;;;;;4954632;28;20180;-70
2023/01/31 13:00:08;;;;;;;3.38;1.27;;;8.80;99.90;;;;;;4955068;28;20180;-70
2023/01/31 13:02:42;;;;;;;1.20;0.90;;;8.70;99.90;;;;;;4954907;28;20180;-69
2023/01/31 13:05:17;;;;;;;1.88;1.30;;;8.50;99.90;;;;;;4954631;28;20210;-70
2023/01/31 13:08:12;;;;;;;1.48;1.15;;;8.30;99.90;;;;;;4958410;28;20631;-70
2023/01/31 13:10:51;;;;;;;1.98;1.17;;;8.20;99.90;;;;;;4958172;28;20176;-70
2023/01/31 13:13:24;;;;;;;2.72;1.17;;;8.00;99.90;;;;;;4957872;28;20232;-70
2023/01/31 13:16:00;;;;;;;1.45;1.13;;;7.80;99.90;;;;;;4956984;28;20250;-70
2023/01/31 13:18:28;;;;;;;2.80;1.20;;;7.70;99.90;;;;;;4958597;28;20239;-70
2023/01/31 13:20:58;;;;;;;1.08;0.90;;;7.60;99.90;;;;;;4958375;28;20224;-70
2023/01/31 13:23:43;;;;;;;1.63;1.52;;;7.50;99.90;;;;;;4957940;28;20183;-69
2023/01/31 13:26:38;;;;;;;1.20;1.13;;;7.60;99.90;;;;;;4958288;28;20173;-67
2023/01/31 13:29:19;;;;;;;1.58;1.50;;;7.50;99.90;;;;;;4954034;28;20231;-70
2023/01/31 13:31:55;;;;;;;0.90;0.90;;;7.50;99.90;;;;;;4958127;28;20179;-70
2023/01/31 13:34:43;;;;;;;2.10;0.95;;;7.40;99.90;;;;;;4957369;28;20206;-66
2023/01/31 13:37:14;;;;;;;1.63;1.52;;;7.40;99.90;;;;;;4956549;28;20185;-69
2023/01/31 13:39:49;;;;;;;1.20;1.10;;;7.20;99.90;;;;;;4957998;28;20176;-70
2023/01/31 13:42:16;;;;;;;2.83;1.52;;;7.30;99.90;;;;;;4958136;28;20192;-70
2023/01/31 13:44:44;;;;;;;2.72;2.13;;;7.20;99.90;;;;;;4957272;28;20193;-69
2023/01/31 13:47:49;;;;;;;3.88;1.90;;;7.10;99.90;;;;;;4958248;28;20650;-69
2023/01/31 13:50:35;;;;;;;1.67;1.38;;;7.10;99.90;;;;;;4957843;28;20184;-70
2023/01/31 13:53:03;;;;;;;2.40;1.55;;;6.90;99.90;;;;;;4957580;28;20207;-70
2023/01/31 13:55:37;;;;;;;1.15;1.05;;;6.90;99.90;;;;;;4957692;28;20554;-70
2023/01/31 13:58:22;;;;;;;3.83;1.70;;;6.80;99.90;;;;;;4957612;28;20200;-70
2023/01/31 14:00:58;;;;;;;1.40;1.20;;;6.80;99.90;;;;;;4955552;28;20203;-70
2023/01/31 14:03:24;;;;;;;2.00;1.90;;;6.80;99.90;;;;;;4955135;28;20163;-70
2023/01/31 14:05:53;;;;;;;3.20;2.13;;;6.80;99.90;;;;;;4955331;28;20211;-70
2023/01/31 14:08:51;;;;;;;1.77;1.67;;;6.80;99.90;;;;;;4955293;28;20177;-71
2023/01/31 14:11:17;;;;;;;1.50;1.40;;;6.80;99.90;;;;;;4936366;29;20517;-70
2023/01/31 14:13:45;;;;;;;2.45;1.80;;;6.80;99.90;;;;;;4936312;29;20172;-70
2023/01/31 14:16:35;;;;;;;1.42;1.42;;;6.80;99.90;;;;;;4938446;29;20191;-70
2023/01/31 14:19:01;;;;;;;2.42;1.60;;;6.70;99.90;;;;;;4938149;29;20203;-70
2023/01/31 14:21:29;;;;;;;1.33;1.23;;;6.70;99.90;;;;;;4937429;29;20206;-69
2023/01/31 14:24:03;;;;;;;1.02;1.02;;;6.70;99.90;;;;;;4937679;29;20218;-70
2023/01/31 14:26:43;;;;;;;2.65;2.20;;;6.70;99.90;;;;;;4955938;29;20177;-71
2023/01/31 14:29:14;;;;;;;6.85;2.08;;;6.70;99.90;;;;;;4956521;28;20211;-70
2023/01/31 14:31:42;;;;;;;1.30;1.13;;;6.70;99.90;;;;;;4956613;28;20176;-70
2023/01/31 14:34:24;;;;;;;2.42;1.40;;;6.70;99.90;;;;;;4956794;28;20206;-69
2023/01/31 14:37:10;;;;;;;1.60;1.50;;;6.70;99.90;;;;;;4971542;28;20188;-70
2023/01/31 14:40:03;;;;;;;2.90;1.75;;;6.70;99.90;;;;;;4955452;29;20667;-70
2023/01/31 14:42:49;;;;;;;4.88;1.95;;;6.70;99.90;;;;;;4956673;28;20183;-70
2023/01/31 14:45:44;;;;;;;2.38;1.60;;;6.80;99.90;;;;;;4956718;28;20223;-70
2023/01/31 14:48:38;;;;;;;2.78;1.85;;;6.70;99.90;;;;;;4956249;28;20549;-70
2023/01/31 14:51:22;;;;;;;2.90;2.30;;;6.70;99.90;;;;;;4939760;28;20524;-70
2023/01/31 14:54:19;;;;;;;2.55;1.30;;;6.70;99.90;;;;;;4956414;28;20280;-70
2023/01/31 14:57:05;;;;;;;1.70;1.60;;;6.70;99.90;;;;;;4956450;28;20173;-70
2023/01/31 14:59:35;;;;;;;2.40;2.13;;;6.60;99.90;;;;;;4956784;28;20187;-70
2023/01/31 15:02:22;;;;;;;2.13;1.83;;;6.60;99.90;;;;;;4955149;29;20204;-70
2023/01/31 15:05:09;;;;;;;2.35;2.15;;;6.60;99.90;;;;;;4953995;28;20204;-70
2023/01/31 15:07:35;;;;;;;3.17;1.92;;;6.50;99.90;;;;;;4955989;28;20183;-70
2023/01/31 15:10:01;;;;;;;3.13;2.25;;;6.50;99.90;;;;;;4956473;28;20171;-70
2023/01/31 15:12:53;;;;;;;1.80;1.70;;;6.40;99.90;;;;;;4955535;28;20485;-70
2023/01/31 15:15:34;;;;;;;2.67;1.70;;;6.40;99.90;;;;;;4937040;29;20800;-70
2023/01/31 15:18:09;;;;;;;2.50;1.50;;;6.40;99.90;;;;;;4935930;29;20180;-70
2023/01/31 15:20:48;;;;;;;1.70;1.60;;;6.40;99.90;;;;;;4953283;29;20210;-69
2023/01/31 15:23:22;;;;;;;2.80;1.98;;;6.40;99.90;;;;;;4954517;28;20180;-69
2023/01/31 15:25:49;;;;;;;2.58;1.33;;;6.50;99.90;;;;;;4955878;28;20199;-70
2023/01/31 15:28:18;;;;;;;2.38;2.13;;;6.50;99.90;;;;;;4954971;28;20259;-70
2023/01/31 15:30:45;;;;;;;3.28;1.80;;;6.50;99.90;;;;;;4955583;28;20180;-69
2023/01/31 15:33:33;;;;;;;3.40;2.22;;;6.50;99.90;;;;;;4955336;28;20181;-70
2023/01/31 15:36:32;;;;;;;2.95;1.60;;;6.40;99.90;;;;;;4956048;28;20255;-69
2023/01/31 15:39:04;;;;;;;1.80;1.60;;;6.50;99.90;;;;;;4954633;29;20179;-69
2023/01/31 15:41:43;;;;;;;3.20;2.90;;;6.50;99.90;;;;;;4955833;28;20233;-70
2023/01/31 15:44:15;;;;;;;1.85;1.75;;;6.40;99.90;;;;;;4942875;28;20195;-70
2023/01/31 15:46:43;;;;;;;2.28;2.08;;;6.50;99.90;;;;;;4955529;28;20178;-69
2023/01/31 15:49:31;;;;;;;3.95;1.73;;;6.50;99.90;;;;;;4955204;28;20186;-70
2023/01/31 15:52:04;;;;;;;2.17;2.00;;;6.40;99.90;;;;;;4955674;28;20205;-69
2023/01/31 15:54:30;;;;;;;2.90;2.60;;;6.40;99.90;;;;;;4953517;28;20321;-70
2023/01/31 15:56:56;;;;;;;1.80;1.70;;;6.40;99.90;;;;;;4954014;29;20188;-69
2023/01/31 15:59:25;;;;;;;5.07;2.55;;;6.30;99.90;;;;;;4955056;28;20184;-69
2023/01/31 16:02:02;;;;;;;3.22;2.70;;;6.30;99.90;;;;;;4936280;29;20674;-69
2023/01/31 16:04:28;;;;;;;3.22;1.92;;;6.30;99.90;;;;;;4953039;29;20207;-70
2023/01/31 16:06:54;;;;;;;6.97;2.30;;;6.30;99.90;;;;;;4955429;28;20189;-70
2023/01/31 16:09:32;;;;;;;2.78;1.98;;;6.30;99.90;;;;;;4955495;28;20277;-69
2023/01/31 16:11:59;;;;;;;3.25;1.70;;;6.30;99.90;;;;;;4955453;28;20186;-68
2023/01/31 16:14:26;;;;;;;2.78;2.00;;;6.20;99.90;;;;;;4954625;28;20296;-68
2023/01/31 16:16:54;;;;;;;2.05;1.60;;;6.20;99.90;;;;;;4953953;29;20542;-69
2023/01/31 16:19:31;;;;;;;3.70;1.83;;;6.20;99.90;;;;;;4954788;28;20257;-70
2023/01/31 16:21:57;;;;;;;2.25;2.05;;;6.10;99.90;;;;;;4955108;28;20607;-72
2023/01/31 16:24:23;;;;;;;1.90;1.20;;;6.00;99.90;;;;;;4953454;28;20280;-68
2023/01/31 16:27:07;;;;;;;1.88;1.77;;;6.10;99.90;;;;;;4955159;28;20278;-69
2023/01/31 16:29:43;;;;;;;3.90;2.92;;;6.00;99.90;;;;;;4954968;28;20687;-70
2023/01/31 16:32:21;;;;;;;2.42;2.22;;;6.00;99.90;;;;;;4955010;28;20202;-71
2023/01/31 16:35:05;;;;;;;2.10;2.00;;;6.00;99.90;;;;;;4953948;28;20294;-67
2023/01/31 16:37:39;;;;;;;1.67;1.52;;;6.00;99.90;;;;;;4935972;29;20683;-70
2023/01/31 16:40:07;;;;;;;5.40;2.70;;;6.00;99.90;;;;;;4937347;29;20201;-68
2023/01/31 16:42:34;;;;;;;4.10;2.58;;;6.00;99.90;;;;;;4949986;29;20567;-73
2023/01/31 16:45:01;;;;;;;2.22;2.13;;;6.00;99.90;;;;;;4958246;28;20680;-75
2023/01/31 16:47:30;;;;;;;3.25;2.30;;;6.00;99.90;;;;;;4939951;29;20198;-71
2023/01/31 16:50:20;;;;;;;2.40;2.20;;;6.00;99.90;;;;;;4956804;29;20277;-71
2023/01/31 16:53:13;;;;;;;3.92;2.40;;;6.00;99.90;;;;;;4958544;29;20172;-71
2023/01/31 16:55:39;;;;;;;1.63;1.52;;;6.00;99.90;;;;;;4958432;28;20291;-71
2023/01/31 16:58:04;;;;;;;1.90;1.80;;;6.00;99.90;;;;;;4958774;28;20595;-73
2023/01/31 17:00:30;;;;;;;3.30;2.50;;;6.00;99.90;;;;;;4957136;28;20259;-71
2023/01/31 17:02:59;;;;;;;1.93;1.83;;;6.00;99.90;;;;;;4958230;28;20176;-70
2023/01/31 17:05:34;;;;;;;2.45;2.03;;;6.00;99.90;;;;;;4958102;28;20207;-72
2023/01/31 17:08:00;;;;;;;2.33;1.80;;;6.00;99.90;;;;;;4958321;28;20172;-71
2023/01/31 17:10:28;;;;;;;3.83;2.95;;;6.00;99.90;;;;;;4958223;28;20548;-70
2023/01/31 17:13:07;;;;;;;4.00;1.95;;;6.00;99.90;;;;;;4956561;28;20181;-71
2023/01/31 17:15:33;;;;;;;2.25;2.05;;;6.00;99.90;;;;;;4958003;28;20531;-71
2023/01/31 17:17:59;;;;;;;2.43;2.03;;;6.00;99.90;;;;;;4957084;28;20178;-70
2023/01/31 17:20:25;;;;;;;2.60;2.23;;;6.00;99.90;;;;;;4958066;28;20460;-71
2023/01/31 17:22:50;;;;;;;2.93;2.63;;;6.00;99.90;;;;;;4957586;28;20186;-71
2023/01/31 17:25:18;;;;;;;4.20;2.30;;;6.00;99.90;;;;;;4957757;28;20566;-71
2023/01/31 17:27:44;;;;;;;3.30;2.63;;;6.00;99.90;;;;;;4957667;28;20190;-70
2023/01/31 17:30:11;;;;;;;3.50;2.65;;;6.00;99.90;;;;;;4957799;28;20223;-73
2023/01/31 17:32:38;;;;;;;3.75;2.22;;;6.00;99.90;;;;;;4955695;28;20186;-70
2023/01/31 17:35:19;;;;;;;1.92;1.73;;;6.10;99.90;;;;;;4957236;28;20199;-74
2023/01/31 17:37:45;;;;;;;4.38;3.78;;;6.00;99.90;;;;;;4951043;29;20200;-72
2023/01/31 17:40:11;;;;;;;1.90;1.80;;;5.90;99.90;;;;;;4957014;28;20255;-75
2023/01/31 17:42:36;;;;;;;2.05;1.83;;;6.00;99.90;;;;;;4955437;29;20480;-69
2023/01/31 17:45:02;;;;;;;2.80;2.60;;;6.00;99.90;;;;;;4954306;28;20266;-70
2023/01/31 17:47:28;;;;;;;2.42;1.90;;;6.00;99.90;;;;;;4955026;29;20531;-70
2023/01/31 17:49:56;;;;;;;3.83;2.70;;;6.00;99.90;;;;;;4954797;29;20543;-72
2023/01/31 17:52:22;;;;;;;1.92;1.83;;;6.00;99.90;;;;;;4954636;28;20218;-71
2023/01/31 17:54:47;;;;;;;3.00;2.80;;;6.00;99.90;;;;;;4954014;28;20346;-71
2023/01/31 17:57:13;;;;;;;5.43;3.03;;;6.00;99.90;;;;;;4955463;29;20184;-73
2023/01/31 17:59:39;;;;;;;3.53;2.43;;;6.00;99.90;;;;;;4954007;29;20441;-71
2023/01/31 18:02:04;;;;;;;3.67;2.30;;;5.90;99.90;;;;;;4955450;29;20213;-70
2023/01/31 18:04:30;;;;;;;3.47;1.80;;;5.90;99.90;;;;;;4954452;28;20303;-73
2023/01/31 18:06:55;;;;;;;2.50;2.30;;;5.90;99.90;;;;;;4955111;29;20248;-70
2023/01/31 18:09:21;;;;;;;2.37;2.17;;;6.00;99.90;;;;;;4953816;28;20186;-72
2023/01/31 18:11:47;;;;;;;3.60;2.93;;;5.90;99.90;;;;;;4954338;29;20172;-73
2023/01/31 18:14:13;;;;;;;1.90;1.80;;;6.00;99.90;;;;;;4954961;28;20284;-72
2023/01/31 18:16:39;;;;;;;2.53;1.85;;;6.00;99.90;;;;;;4954985;29;20177;-71
2023/01/31 18:19:05;;;;;;;3.20;2.07;;;6.00;99.90;;;;;;4931531;29;20618;-69
2023/01/31 18:21:31;;;;;;;2.63;2.33;;;6.00;99.90;;;;;;4956801;28;20532;-68
2023/01/31 18:23:57;;;;;;;4.77;2.70;;;6.00;99.90;;;;;;4954651;28;20200;-67
2023/01/31 18:26:23;;;;;;;2.95;2.65;;;6.00;99.90;;;;;;4951103;29;20422;-71
2023/01/31 18:28:49;;;;;;;3.72;2.55;;;6.00;99.90;;;;;;4954089;28;20546;-64
2023/01/31 18:31:17;;;;;;;3.03;2.40;;;5.90;99.90;;;;;;4949229;28;20243;-71